sensor_id;sensor_type;location;lat;lon;timestamp;pressure;altitude;pressure_sealevel;temperature;humidity
74435;BME280;62867;52.038;29.256;2023-08-08T00:01:04;1015;;;17.3;71.7
74435;BME280;62867;52.038;29.256;2023-08-08T00:05:34;1015.1;;;17.3;71.6
74435;BME280;62867;52.038;29.256;2023-08-08T00:11:04;1015.1;;;17.3;71.5
74435;BME280;62867;52.038;29.256;2023-08-08T00:15:34;1015.1;;;17.3;71.4
74435;BME280;62867;52.038;29.256;2023-08-08T00:20:54;1015.2;;;17.3;71.4
74435;BME280;62867;52.038;29.256;2023-08-08T00:25:26;1015.1;;;17.3;71.1
74435;BME280;62867;52.038;29.256;2023-08-08T00:30:20;1015.1;;;17.3;71.1
74435;BME280;62867;52.038;29.256;2023-08-08T00:36:04;1015.2;;;17.3;71.2
74435;BME280;62867;52.038;29.256;2023-08-08T00:41:04;1015.3;;;17.4;71.5
74435;BME280;62867;52.038;29.256;2023-08-08T00:45:41;1015.3;;;17.5;71.5
74435;BME280;62867;52.038;29.256;2023-08-08T00:50:20;1015.4;;;17.5;72.1
74435;BME280;62867;52.038;29.256;2023-08-08T00:55:30;1015.3;;;17.7;72
74435;BME280;62867;52.038;29.256;2023-08-08T01:00:20;1015.4;;;17.7;71.8
74435;BME280;62867;52.038;29.256;2023-08-08T01:05:20;1015.5;;;17.8;71.8
74435;BME280;62867;52.038;29.256;2023-08-08T01:10:48;1015.6;;;17.9;71.7
74435;BME280;62867;52.038;29.256;2023-08-08T01:15:54;1015.5;;;17.9;71.5
74435;BME280;62867;52.038;29.256;2023-08-08T01:20:50;1015.5;;;17.9;71.5
74435;BME280;62867;52.038;29.256;2023-08-08T01:26:04;1015.5;;;18;71.1
74435;BME280;62867;52.038;29.256;2023-08-08T01:31:04;1015.6;;;18;71.1
74435;BME280;62867;52.038;29.256;2023-08-08T01:36:06;1015.6;;;18;71.2
74435;BME280;62867;52.038;29.256;2023-08-08T01:41:04;1015.7;;;18;71.2
74435;BME280;62867;52.038;29.256;2023-08-08T01:45:48;1015.8;;;17.9;71.1
74435;BME280;62867;52.038;29.256;2023-08-08T01:50:54;1015.7;;;17.9;71.2
74435;BME280;62867;52.038;29.256;2023-08-08T01:55:50;1015.8;;;17.8;71.1
74435;BME280;62867;52.038;29.256;2023-08-08T02:00:48;1015.8;;;17.7;70.8
74435;BME280;62867;52.038;29.256;2023-08-08T02:05:38;1016;;;17.6;70.8
74435;BME280;62867;52.038;29.256;2023-08-08T02:10:26;1016;;;17.6;70.9
74435;BME280;62867;52.038;29.256;2023-08-08T02:16:04;1016;;;17.5;70.7
74435;BME280;62867;52.038;29.256;2023-08-08T02:20:26;1016.1;;;17.4;70.4
74435;BME280;62867;52.038;29.256;2023-08-08T02:26:04;1016.3;;;17.4;70.5
74435;BME280;62867;52.038;29.256;2023-08-08T02:31:04;1016.3;;;17.3;70.5
74435;BME280;62867;52.038;29.256;2023-08-08T02:35:46;1016.4;;;17.2;70.7
74435;BME280;62867;52.038;29.256;2023-08-08T02:40:20;1016.4;;;17.2;70.7
74435;BME280;62867;52.038;29.256;2023-08-08T02:45:26;1016.5;;;17.1;71.1
74435;BME280;62867;52.038;29.256;2023-08-08T02:51:02;1016.5;;;17.2;71.3
74435;BME280;62867;52.038;29.256;2023-08-08T02:55:22;1016.6;;;17.3;71.2
74435;BME280;62867;52.038;29.256;2023-08-08T03:00:54;1016.6;;;17.4;71.3
74435;BME280;62867;52.038;29.256;2023-08-08T03:06:04;1016.7;;;17.6;71.2
74435;BME280;62867;52.038;29.256;2023-08-08T03:11:04;1016.7;;;17.7;71.1
74435;BME280;62867;52.038;29.256;2023-08-08T03:15:44;1016.7;;;17.8;70.7
74435;BME280;62867;52.038;29.256;2023-08-08T03:20:28;1016.8;;;17.8;70.7
74435;BME280;62867;52.038;29.256;2023-08-08T03:25:22;1016.8;;;17.9;70.5
74435;BME280;62867;52.038;29.256;2023-08-08T03:30:50;1016.9;;;17.9;70.6
74435;BME280;62867;52.038;29.256;2023-08-08T03:35:20;1017;;;17.9;70.6
74435;BME280;62867;52.038;29.256;2023-08-08T03:40:20;1017;;;18;70.5
74435;BME280;62867;52.038;29.256;2023-08-08T03:45:34;1017;;;18.2;70.6
74435;BME280;62867;52.038;29.256;2023-08-08T03:50:50;1017.1;;;18.3;70.5
74435;BME280;62867;52.038;29.256;2023-08-08T03:55:26;1017.1;;;18.3;70.3
74435;BME280;62867;52.038;29.256;2023-08-08T04:01:02;1017.2;;;18.4;70.2
74435;BME280;62867;52.038;29.256;2023-08-08T04:05:50;1017.2;;;18.5;70
74435;BME280;62867;52.038;29.256;2023-08-08T04:11:04;1017.2;;;18.7;69.6
74435;BME280;62867;52.038;29.256;2023-08-08T04:15:54;1017.2;;;18.9;69.1
74435;BME280;62867;52.038;29.256;2023-08-08T04:20:20;1017.3;;;19;68.7
74435;BME280;62867;52.038;29.256;2023-08-08T04:25:34;1017.4;;;19;68.8
74435;BME280;62867;52.038;29.256;2023-08-08T04:30:34;1017.5;;;19;68.7
74435;BME280;62867;52.038;29.256;2023-08-08T04:35:20;1017.7;;;18.9;68.8
74435;BME280;62867;52.038;29.256;2023-08-08T04:40:54;1017.8;;;19;68.9
74435;BME280;62867;52.038;29.256;2023-08-08T04:45:54;1017.9;;;19;69.1
74435;BME280;62867;52.038;29.256;2023-08-08T04:50:34;1017.9;;;19;68.8
74435;BME280;62867;52.038;29.256;2023-08-08T04:55:26;1017.9;;;19.1;68.9
74435;BME280;62867;52.038;29.256;2023-08-08T05:01:02;1018;;;19.2;68.6
74435;BME280;62867;52.038;29.256;2023-08-08T05:06:02;1018.1;;;19.3;68.3
74435;BME280;62867;52.038;29.256;2023-08-08T05:11:02;1018.1;;;19.4;68
74435;BME280;62867;52.038;29.256;2023-08-08T05:15:32;1018.2;;;19.5;67.6
74435;BME280;62867;52.038;29.256;2023-08-08T05:21:02;1018.3;;;19.6;67.4
74435;BME280;62867;52.038;29.256;2023-08-08T05:25:26;1018.3;;;19.7;67.1
74435;BME280;62867;52.038;29.256;2023-08-08T05:30:20;1018.3;;;19.8;67
74435;BME280;62867;52.038;29.256;2023-08-08T05:36:02;1018.3;;;20.1;66.4
74435;BME280;62867;52.038;29.256;2023-08-08T05:40:54;1018.3;;;20.6;65.5
74435;BME280;62867;52.038;29.256;2023-08-08T05:46:02;1018.4;;;21.2;64.7
74435;BME280;62867;52.038;29.256;2023-08-08T05:50:38;1018.4;;;21.4;64.2
74435;BME280;62867;52.038;29.256;2023-08-08T05:56:02;1018.4;;;21.5;63.8
74435;BME280;62867;52.038;29.256;2023-08-08T06:00:20;1018.5;;;21.6;63.8
74435;BME280;62867;52.038;29.256;2023-08-08T06:06:00;1018.5;;;21.5;63.5
74435;BME280;62867;52.038;29.256;2023-08-08T06:10:48;1018.5;;;21.4;63.2
74435;BME280;62867;52.038;29.256;2023-08-08T06:15:36;1018.6;;;21.5;63.1
74435;BME280;62867;52.038;29.256;2023-08-08T06:20:50;1018.5;;;21.6;63.2
74435;BME280;62867;52.038;29.256;2023-08-08T06:25:58;1018.6;;;21.7;62.7
74435;BME280;62867;52.038;29.256;2023-08-08T06:30:20;1018.6;;;21.9;62.3
74435;BME280;62867;52.038;29.256;2023-08-08T06:35:20;1018.6;;;22;61.7
74435;BME280;62867;52.038;29.256;2023-08-08T06:41:03;1018.6;;;22;61.9
74435;BME280;62867;52.038;29.256;2023-08-08T06:45:32;1018.6;;;22.1;61.3
74435;BME280;62867;52.038;29.256;2023-08-08T06:51:02;1018.7;;;22.3;60.9
74435;BME280;62867;52.038;29.256;2023-08-08T06:56:02;1018.7;;;22.5;60.4
74435;BME280;62867;52.038;29.256;2023-08-08T07:00:46;1018.8;;;22.9;59.6
74435;BME280;62867;52.038;29.256;2023-08-08T07:05:20;1018.8;;;23.2;58.2
74435;BME280;62867;52.038;29.256;2023-08-08T07:10:20;1018.9;;;23.4;56.7
74435;BME280;62867;52.038;29.256;2023-08-08T07:16:00;1019;;;23.6;57.6
74435;BME280;62867;52.038;29.256;2023-08-08T07:20:48;1019;;;23.8;57.7
74435;BME280;62867;52.038;29.256;2023-08-08T07:25:40;1019;;;24;56.5
74435;BME280;62867;52.038;29.256;2023-08-08T07:31:04;1019.1;;;24.2;57.6
74435;BME280;62867;52.038;29.256;2023-08-08T07:36:04;1019.2;;;24.2;56.7
74435;BME280;62867;52.038;29.256;2023-08-08T07:40:20;1019.2;;;24.2;57.5
74435;BME280;62867;52.038;29.256;2023-08-08T07:45:29;1019.2;;;24.3;57.4
74435;BME280;62867;52.038;29.256;2023-08-08T07:51:04;1019.2;;;24.3;56.4
74435;BME280;62867;52.038;29.256;2023-08-08T07:55:50;1019.2;;;24.4;56
74435;BME280;62867;52.038;29.256;2023-08-08T08:00:41;1019.2;;;24.4;55.3
74435;BME280;62867;52.038;29.256;2023-08-08T08:05:26;1019.3;;;24.6;52.5
74435;BME280;62867;52.038;29.256;2023-08-08T08:10:40;1019.3;;;24.7;52.3
74435;BME280;62867;52.038;29.256;2023-08-08T08:15:26;1019.4;;;24.7;52.1
74435;BME280;62867;52.038;29.256;2023-08-08T08:20:34;1019.4;;;24.7;53.7
74435;BME280;62867;52.038;29.256;2023-08-08T08:26:02;1019.5;;;24.6;54.1
74435;BME280;62867;52.038;29.256;2023-08-08T08:30:50;1019.4;;;24.5;53.1
74435;BME280;62867;52.038;29.256;2023-08-08T08:36:04;1019.4;;;24.6;52.4
74435;BME280;62867;52.038;29.256;2023-08-08T08:40:41;1019.4;;;24.7;53.2
74435;BME280;62867;52.038;29.256;2023-08-08T08:45:26;1019.4;;;24.7;52.4
74435;BME280;62867;52.038;29.256;2023-08-08T08:50:20;1019.3;;;24.9;52.8
74435;BME280;62867;52.038;29.256;2023-08-08T08:55:20;1019.3;;;24.9;51.7
74435;BME280;62867;52.038;29.256;2023-08-08T09:00:54;1019.3;;;25.1;51.3
74435;BME280;62867;52.038;29.256;2023-08-08T09:05:40;1019.3;;;25.4;49.9
74435;BME280;62867;52.038;29.256;2023-08-08T09:11:04;1019.3;;;25.8;48.9
74435;BME280;62867;52.038;29.256;2023-08-08T09:15:20;1019.3;;;26.2;50
74435;BME280;62867;52.038;29.256;2023-08-08T09:20:20;1019.4;;;26.4;49.4
74435;BME280;62867;52.038;29.256;2023-08-08T09:26:04;1019.4;;;26.3;48.9
74435;BME280;62867;52.038;29.256;2023-08-08T09:30:26;1019.5;;;26;48.9
74435;BME280;62867;52.038;29.256;2023-08-08T09:35:40;1019.4;;;26.6;48.4
74435;BME280;62867;52.038;29.256;2023-08-08T09:40:52;1019.4;;;27.3;47.5
74435;BME280;62867;52.038;29.256;2023-08-08T09:45:52;1019.4;;;27.9;45.1
74435;BME280;62867;52.038;29.256;2023-08-08T09:50:48;1019.4;;;27.8;45
74435;BME280;62867;52.038;29.256;2023-08-08T09:55:42;1019.4;;;27.2;45.6
74435;BME280;62867;52.038;29.256;2023-08-08T10:01:04;1019.5;;;26.6;47.3
74435;BME280;62867;52.038;29.256;2023-08-08T10:06:04;1019.6;;;25.9;48.4
74435;BME280;62867;52.038;29.256;2023-08-08T10:10:21;1019.5;;;25.6;50.9
74435;BME280;62867;52.038;29.256;2023-08-08T10:15:24;1019.5;;;25.5;52.5
74435;BME280;62867;52.038;29.256;2023-08-08T10:21:04;1019.5;;;25.8;52.4
74435;BME280;62867;52.038;29.256;2023-08-08T10:25:43;1019.5;;;26.2;50.9
74435;BME280;62867;52.038;29.256;2023-08-08T10:30:20;1019.5;;;26.6;50.8
74435;BME280;62867;52.038;29.256;2023-08-08T10:35:50;1019.4;;;27.3;48.2
74435;BME280;62867;52.038;29.256;2023-08-08T10:40:56;1019.3;;;28.1;45.3
74435;BME280;62867;52.038;29.256;2023-08-08T10:46:04;1019.3;;;28.8;44.4
74435;BME280;62867;52.038;29.256;2023-08-08T10:50:39;1019.3;;;28.9;43.8
74435;BME280;62867;52.038;29.256;2023-08-08T10:56:04;1019.4;;;28.9;44.2
74435;BME280;62867;52.038;29.256;2023-08-08T11:00:22;1019.4;;;28.4;44.8
74435;BME280;62867;52.038;29.256;2023-08-08T11:06:05;1019.4;;;28.7;42.8
74435;BME280;62867;52.038;29.256;2023-08-08T11:10:50;1019.3;;;29;42.6
74435;BME280;62867;52.038;29.256;2023-08-08T11:15:54;1019.3;;;29.1;41.8
74435;BME280;62867;52.038;29.256;2023-08-08T11:20:50;1019.3;;;29.4;41.2
74435;BME280;62867;52.038;29.256;2023-08-08T11:25:43;1019.2;;;29.5;43.2
74435;BME280;62867;52.038;29.256;2023-08-08T11:30:54;1019.2;;;29.8;41.5
74435;BME280;62867;52.038;29.256;2023-08-08T11:35:21;1019.1;;;29.3;40.7
74435;BME280;62867;52.038;29.256;2023-08-08T11:41:04;1019.2;;;30;40.7
74435;BME280;62867;52.038;29.256;2023-08-08T11:45:20;1019.3;;;30.3;41.6
74435;BME280;62867;52.038;29.256;2023-08-08T11:50:54;1019.3;;;29.4;43.8
74435;BME280;62867;52.038;29.256;2023-08-08T11:56:04;1019.5;;;28.4;44.6
74435;BME280;62867;52.038;29.256;2023-08-08T12:00:48;1019.6;;;27.5;45.9
74435;BME280;62867;52.038;29.256;2023-08-08T12:05:36;1019.7;;;26.8;46.4
74435;BME280;62867;52.038;29.256;2023-08-08T12:10:26;1019.7;;;26.2;48
74435;BME280;62867;52.038;29.256;2023-08-08T12:16:05;1019.6;;;25.7;48.3
74435;BME280;62867;52.038;29.256;2023-08-08T12:21:04;1019.6;;;25.5;50.5
74435;BME280;62867;52.038;29.256;2023-08-08T12:25:20;1019.6;;;25.5;50.1
74435;BME280;62867;52.038;29.256;2023-08-08T12:31:04;1019.7;;;25.6;50.4
74435;BME280;62867;52.038;29.256;2023-08-08T12:35:20;1019.8;;;25.8;47.3
74435;BME280;62867;52.038;29.256;2023-08-08T12:40:20;1019.8;;;27.2;46.7
74435;BME280;62867;52.038;29.256;2023-08-08T12:45:26;1020;;;27.6;45
74435;BME280;62867;52.038;29.256;2023-08-08T12:51:04;1020.2;;;27.1;46.5
74435;BME280;62867;52.038;29.256;2023-08-08T12:55:50;1020.3;;;27;47.5
74435;BME280;62867;52.038;29.256;2023-08-08T13:01:04;1020.4;;;28.2;45.3
74435;BME280;62867;52.038;29.256;2023-08-08T13:05:20;1020.4;;;27.7;46.5
74435;BME280;62867;52.038;29.256;2023-08-08T13:10:20;1020.4;;;26.9;48.4
74435;BME280;62867;52.038;29.256;2023-08-08T13:15:26;1020.5;;;26.1;48.8
74435;BME280;62867;52.038;29.256;2023-08-08T13:20:34;1020.5;;;25.4;49
74435;BME280;62867;52.038;29.256;2023-08-08T13:25:34;1020.5;;;24.8;50.5
74435;BME280;62867;52.038;29.256;2023-08-08T13:30:52;1020.5;;;24.2;51.5
74435;BME280;62867;52.038;29.256;2023-08-08T13:36:02;1020.6;;;23.7;53
74435;BME280;62867;52.038;29.256;2023-08-08T13:40:30;1020.8;;;23.2;54.3
74435;BME280;62867;52.038;29.256;2023-08-08T13:45:37;1020.8;;;22.8;55.4
74435;BME280;62867;52.038;29.256;2023-08-08T13:51:03;1020.8;;;22.5;56.6
74435;BME280;62867;52.038;29.256;2023-08-08T13:55:28;1020.8;;;22.6;57
74435;BME280;62867;52.038;29.256;2023-08-08T14:00:20;1020.7;;;22.9;57.7
74435;BME280;62867;52.038;29.256;2023-08-08T14:05:53;1020.6;;;23.1;58.2
74435;BME280;62867;52.038;29.256;2023-08-08T14:10:53;1020.6;;;23;58.8
74435;BME280;62867;52.038;29.256;2023-08-08T14:15:34;1020.7;;;22.8;58.6
74435;BME280;62867;52.038;29.256;2023-08-08T14:20:27;1020.8;;;22.6;59.4
74435;BME280;62867;52.038;29.256;2023-08-08T14:25:58;1020.7;;;22.4;59.7
74435;BME280;62867;52.038;29.256;2023-08-08T14:31:00;1020.7;;;22.3;59.9
74435;BME280;62867;52.038;29.256;2023-08-08T14:35:41;1020.8;;;22.3;59.9
74435;BME280;62867;52.038;29.256;2023-08-08T14:40:36;1020.7;;;22.3;60
74435;BME280;62867;52.038;29.256;2023-08-08T14:46:00;1020.8;;;22.2;59.9
74435;BME280;62867;52.038;29.256;2023-08-08T14:50:20;1020.7;;;22.2;60.5
74435;BME280;62867;52.038;29.256;2023-08-08T14:55:26;1020.7;;;22.1;61.5
74435;BME280;62867;52.038;29.256;2023-08-08T15:01:00;1020.7;;;22.1;61.7
74435;BME280;62867;52.038;29.256;2023-08-08T15:05:52;1020.6;;;22;61.9
74435;BME280;62867;52.038;29.256;2023-08-08T15:11:00;1020.6;;;22;62.4
74435;BME280;62867;52.038;29.256;2023-08-08T15:15:30;1020.7;;;22;63.1
74435;BME280;62867;52.038;29.256;2023-08-08T15:21:00;1020.8;;;21.9;63.1
74435;BME280;62867;52.038;29.256;2023-08-08T15:25:20;1020.8;;;21.8;62.5
74435;BME280;62867;52.038;29.256;2023-08-08T15:31:00;1020.7;;;21.8;62.9
74435;BME280;62867;52.038;29.256;2023-08-08T15:35:40;1020.8;;;21.8;62.9
74435;BME280;62867;52.038;29.256;2023-08-08T15:40:38;1020.8;;;21.8;62.8
74435;BME280;62867;52.038;29.256;2023-08-08T15:45:50;1020.8;;;21.8;63.4
74435;BME280;62867;52.038;29.256;2023-08-08T15:50:46;1020.8;;;21.8;63.8
74435;BME280;62867;52.038;29.256;2023-08-08T15:55:26;1020.8;;;21.8;64.1
74435;BME280;62867;52.038;29.256;2023-08-08T16:00:26;1020.8;;;21.8;63.5
74435;BME280;62867;52.038;29.256;2023-08-08T16:06:00;1020.8;;;21.7;63.1
74435;BME280;62867;52.038;29.256;2023-08-08T16:10:34;1020.8;;;21.5;63.4
74435;BME280;62867;52.038;29.256;2023-08-08T16:16:00;1020.9;;;21.4;63.4
74435;BME280;62867;52.038;29.256;2023-08-08T16:21:02;1021;;;21.3;63.5
74435;BME280;62867;52.038;29.256;2023-08-08T16:25:48;1021;;;21.1;63.6
74435;BME280;62867;52.038;29.256;2023-08-08T16:30:34;1020.9;;;21.1;64.1
74435;BME280;62867;52.038;29.256;2023-08-08T16:35:34;1021;;;21.1;64
74435;BME280;62867;52.038;29.256;2023-08-08T16:40:50;1021;;;21.1;64.2
74435;BME280;62867;52.038;29.256;2023-08-08T16:45:50;1021;;;21;64.5
74435;BME280;62867;52.038;29.256;2023-08-08T16:50:40;1021;;;21;65
74435;BME280;62867;52.038;29.256;2023-08-08T16:55:42;1021;;;20.9;65.1
74435;BME280;62867;52.038;29.256;2023-08-08T17:00:26;1021;;;20.9;65.5
74435;BME280;62867;52.038;29.256;2023-08-08T17:05:34;1021.1;;;20.8;65.8
74435;BME280;62867;52.038;29.256;2023-08-08T17:10:20;1021.1;;;20.7;65.9
74435;BME280;62867;52.038;29.256;2023-08-08T17:16:06;1021.1;;;20.6;66
74435;BME280;62867;52.038;29.256;2023-08-08T17:20:50;1021.2;;;20.4;66
74435;BME280;62867;52.038;29.256;2023-08-08T17:26:06;1021.2;;;20.3;65.9
74435;BME280;62867;52.038;29.256;2023-08-08T17:30:48;1021.1;;;20.1;65.8
74435;BME280;62867;52.038;29.256;2023-08-08T17:35:38;1021.2;;;20.1;65.8
74435;BME280;62867;52.038;29.256;2023-08-08T17:40:24;1021.3;;;19.9;66
74435;BME280;62867;52.038;29.256;2023-08-08T17:45:34;1021.4;;;19.8;66.3
74435;BME280;62867;52.038;29.256;2023-08-08T17:50:38;1021.4;;;19.6;66.2
74435;BME280;62867;52.038;29.256;2023-08-08T17:55:55;1021.5;;;19.5;66.2
74435;BME280;62867;52.038;29.256;2023-08-08T18:01:05;1021.4;;;19.4;66.4
74435;BME280;62867;52.038;29.256;2023-08-08T18:05:49;1021.5;;;19.3;66.8
74435;BME280;62867;52.038;29.256;2023-08-08T18:10:21;1021.5;;;19.3;66.7
74435;BME280;62867;52.038;29.256;2023-08-08T18:16:05;1021.6;;;19.2;66.8
74435;BME280;62867;52.038;29.256;2023-08-08T18:20:49;1021.6;;;19.2;66.8
74435;BME280;62867;52.038;29.256;2023-08-08T18:25:40;1021.7;;;19.2;66.7
74435;BME280;62867;52.038;29.256;2023-08-08T18:30:55;1021.7;;;19.2;66.5
74435;BME280;62867;52.038;29.256;2023-08-08T18:35:42;1021.7;;;19.2;66.8
74435;BME280;62867;52.038;29.256;2023-08-08T18:40:27;1021.7;;;19.1;66.7
74435;BME280;62867;52.038;29.256;2023-08-08T18:45:20;1021.7;;;19;66.6
74435;BME280;62867;52.038;29.256;2023-08-08T18:51:04;1021.6;;;18.9;66.9
74435;BME280;62867;52.038;29.256;2023-08-08T18:56:05;1021.7;;;18.8;66.8
74435;BME280;62867;52.038;29.256;2023-08-08T19:00:41;1021.7;;;18.6;66.9
74435;BME280;62867;52.038;29.256;2023-08-08T19:05:49;1021.8;;;18.5;67.3
74435;BME280;62867;52.038;29.256;2023-08-08T19:11:06;1021.8;;;18.5;67.6
74435;BME280;62867;52.038;29.256;2023-08-08T19:15:51;1021.9;;;18.4;67.6
74435;BME280;62867;52.038;29.256;2023-08-08T19:20:39;1021.9;;;18.4;67.7
74435;BME280;62867;52.038;29.256;2023-08-08T19:25:51;1021.8;;;18.3;67.7
74435;BME280;62867;52.038;29.256;2023-08-08T19:30:25;1021.8;;;18.2;67.8
74435;BME280;62867;52.038;29.256;2023-08-08T19:36:05;1021.8;;;18.2;67.7
74435;BME280;62867;52.038;29.256;2023-08-08T19:40:39;1021.9;;;18.1;67.4
74435;BME280;62867;52.038;29.256;2023-08-08T19:46:07;1021.9;;;18;67.6
74435;BME280;62867;52.038;29.256;2023-08-08T19:50:51;1021.9;;;17.9;67.6
74435;BME280;62867;52.038;29.256;2023-08-08T19:56:04;1021.9;;;17.8;67.9
74435;BME280;62867;52.038;29.256;2023-08-08T20:00:49;1021.9;;;17.7;67.8
74435;BME280;62867;52.038;29.256;2023-08-08T20:05:55;1021.9;;;17.6;68.2
74435;BME280;62867;52.038;29.256;2023-08-08T20:10:51;1022;;;17.6;68.1
74435;BME280;62867;52.038;29.256;2023-08-08T20:15:48;1022;;;17.5;68.5
74435;BME280;62867;52.038;29.256;2023-08-08T20:20:33;1022;;;17.5;68.5
74435;BME280;62867;52.038;29.256;2023-08-08T20:25:41;1022.1;;;17.4;68.5
74435;BME280;62867;52.038;29.256;2023-08-08T20:31:05;1022.2;;;17.4;68.5
74435;BME280;62867;52.038;29.256;2023-08-08T20:35:51;1022.1;;;17.3;68.5
74435;BME280;62867;52.038;29.256;2023-08-08T20:40:23;1022.1;;;17.3;68.4
74435;BME280;62867;52.038;29.256;2023-08-08T20:46:07;1022.1;;;17.2;68.4
74435;BME280;62867;52.038;29.256;2023-08-08T20:50:51;1022.2;;;17.2;68.7
74435;BME280;62867;52.038;29.256;2023-08-08T20:55:27;1022.2;;;17.1;68.7
74435;BME280;62867;52.038;29.256;2023-08-08T21:00:21;1022.2;;;17.1;68.7
74435;BME280;62867;52.038;29.256;2023-08-08T21:06:05;1022.2;;;17;68.8
74435;BME280;62867;52.038;29.256;2023-08-08T21:10:51;1022.3;;;17;68.9
74435;BME280;62867;52.038;29.256;2023-08-08T21:15:21;1022.3;;;17;69
74435;BME280;62867;52.038;29.256;2023-08-08T21:21:05;1022.4;;;16.9;69
74435;BME280;62867;52.038;29.256;2023-08-08T21:26:05;1022.3;;;16.9;69
74435;BME280;62867;52.038;29.256;2023-08-08T21:30:21;1022.3;;;16.9;69.1
74435;BME280;62867;52.038;29.256;2023-08-08T21:35:35;1022.3;;;16.9;69.3
74435;BME280;62867;52.038;29.256;2023-08-08T21:40:51;1022.3;;;16.8;69.2
74435;BME280;62867;52.038;29.256;2023-08-08T21:45:55;1022.3;;;16.8;69.1
74435;BME280;62867;52.038;29.256;2023-08-08T21:50:41;1022.2;;;16.8;68.9
74435;BME280;62867;52.038;29.256;2023-08-08T21:55:39;1022.2;;;16.7;68.9
74435;BME280;62867;52.038;29.256;2023-08-08T22:00:41;1022.2;;;16.7;68.9
74435;BME280;62867;52.038;29.256;2023-08-08T22:05:21;1022.2;;;16.7;69.1
74435;BME280;62867;52.038;29.256;2023-08-08T22:10:21;1022.2;;;16.7;69.4
74435;BME280;62867;52.038;29.256;2023-08-08T22:16:05;1022.3;;;16.6;69.5
74435;BME280;62867;52.038;29.256;2023-08-08T22:20:51;1022.2;;;16.6;69.6
74435;BME280;62867;52.038;29.256;2023-08-08T22:26:07;1022.2;;;16.6;69.4
74435;BME280;62867;52.038;29.256;2023-08-08T22:30:21;1022.2;;;16.6;69.2
74435;BME280;62867;52.038;29.256;2023-08-08T22:35:27;1022.2;;;16.6;69
74435;BME280;62867;52.038;29.256;2023-08-08T22:40:21;1022.2;;;16.5;68.7
74435;BME280;62867;52.038;29.256;2023-08-08T22:45:29;1022.2;;;16.4;68.4
74435;BME280;62867;52.038;29.256;2023-08-08T22:50:41;1022.2;;;16.3;68.4
74435;BME280;62867;52.038;29.256;2023-08-08T22:55:41;1022.3;;;16.2;68.5
74435;BME280;62867;52.038;29.256;2023-08-08T23:01:07;1022.3;;;16.2;68.6
74435;BME280;62867;52.038;29.256;2023-08-08T23:05:39;1022.5;;;16.1;68.7
74435;BME280;62867;52.038;29.256;2023-08-08T23:10:21;1022.5;;;16;68.8
74435;BME280;62867;52.038;29.256;2023-08-08T23:16:05;1022.5;;;16;68.8
74435;BME280;62867;52.038;29.256;2023-08-08T23:20:35;1022.6;;;15.9;68.7
74435;BME280;62867;52.038;29.256;2023-08-08T23:25:41;1022.6;;;15.9;68.7
74435;BME280;62867;52.038;29.256;2023-08-08T23:30:41;1022.7;;;15.8;68.7
74435;BME280;62867;52.038;29.256;2023-08-08T23:35:55;1022.7;;;15.8;68.7
74435;BME280;62867;52.038;29.256;2023-08-08T23:40:29;1022.7;;;15.8;68.6
74435;BME280;62867;52.038;29.256;2023-08-08T23:45:21;1022.7;;;15.7;68.6
74435;BME280;62867;52.038;29.256;2023-08-08T23:51:03;1022.7;;;15.6;68.7
74435;BME280;62867;52.038;29.256;2023-08-08T23:56:03;1022.6;;;15.6;68.7
